Time;durP1;ratioP1;P1;durP2;ratioP2;P2;SDS_P1;SDS_P2;PMS_P1;PMS_P2;Temp;Humidity;BMP_temperature;BMP_pressure;BME280_temperature;BME280_humidity;BME280_pressure;Samples;Min_cycle;Max_cycle;Signal;HPM_P1;HPM_P2
2023/04/15 00:01:06;;;;;;;22.43;8.90;;;;;;;8.51;100.00;100076.41;5094749;28;20444;-69
2023/04/15 00:03:33;;;;;;;17.97;9.20;;;;;;;8.53;100.00;100073.41;5095020;28;20566;-69
2023/04/15 00:06:00;;;;;;;19.23;9.20;;;;;;;8.55;100.00;100073.91;5094708;28;20444;-69
2023/04/15 00:08:27;;;;;;;24.70;9.63;;;;;;;8.54;100.00;100072.28;5094904;28;20546;-68
2023/04/15 00:10:53;;;;;;;21.00;9.93;;;;;;;8.57;100.00;100067.09;5094602;28;20812;-69
2023/04/15 00:13:21;;;;;;;17.67;9.37;;;;;;;8.57;100.00;100071.69;5094804;28;20464;-69
2023/04/15 00:15:48;;;;;;;19.77;9.10;;;;;;;8.51;100.00;100067.50;5094487;28;20470;-69
2023/04/15 00:18:14;;;;;;;22.33;10.10;;;;;;;8.51;100.00;100052.13;5094754;28;20436;-69
2023/04/15 00:20:41;;;;;;;28.50;10.97;;;;;;;8.58;100.00;100062.50;5094467;28;20942;-68
2023/04/15 00:23:08;;;;;;;25.97;10.90;;;;;;;8.49;100.00;100054.31;5094328;28;20986;-69
2023/04/15 00:25:34;;;;;;;22.97;10.43;;;;;;;8.41;100.00;100059.59;5094682;28;20440;-69
2023/04/15 00:28:01;;;;;;;26.60;10.23;;;;;;;8.44;100.00;100059.00;5094511;28;20488;-69
2023/04/15 00:30:30;;;;;;;20.97;11.10;;;;;;;8.50;100.00;100057.78;5094269;28;20935;-68
2023/04/15 00:32:56;;;;;;;27.13;11.70;;;;;;;8.61;100.00;100059.22;5094101;28;20468;-68
2023/04/15 00:35:24;;;;;;;24.30;11.63;;;;;;;8.57;100.00;100050.91;5094162;28;20535;-69
2023/04/15 00:37:51;;;;;;;18.00;9.67;;;;;;;8.61;100.00;100059.22;5094060;28;20440;-69
2023/04/15 00:40:19;;;;;;;26.23;11.03;;;;;;;8.68;100.00;100048.03;5094000;28;20950;-68
2023/04/15 00:42:45;;;;;;;23.37;11.63;;;;;;;8.73;100.00;100048.72;5094171;28;20552;-69
2023/04/15 00:45:12;;;;;;;27.40;11.60;;;;;;;8.77;100.00;100052.41;5093930;28;20487;-69
2023/04/15 00:47:42;;;;;;;27.37;11.80;;;;;;;8.76;100.00;100048.09;5094118;28;20519;-69
2023/04/15 00:50:09;;;;;;;30.87;13.60;;;;;;;8.74;100.00;100054.91;5093799;28;20444;-69
2023/04/15 00:52:36;;;;;;;26.97;10.97;;;;;;;8.73;100.00;100054.09;5093681;28;21026;-68
2023/04/15 00:55:03;;;;;;;26.40;11.67;;;;;;;8.75;100.00;100057.28;5093782;28;20469;-69
2023/04/15 00:57:30;;;;;;;23.30;10.93;;;;;;;8.80;100.00;100042.88;5094090;28;20478;-68
2023/04/15 00:59:58;;;;;;;27.20;12.20;;;;;;;8.77;100.00;100048.91;5093998;28;20432;-69
2023/04/15 01:02:24;;;;;;;29.37;13.17;;;;;;;8.82;100.00;100049.59;5093558;28;20547;-69
2023/04/15 01:04:52;;;;;;;30.50;13.53;;;;;;;8.86;100.00;100051.69;5093897;28;20446;-69
2023/04/15 01:07:19;;;;;;;31.37;14.57;;;;;;;8.82;100.00;100052.28;5093823;28;20444;-68
2023/04/15 01:09:46;;;;;;;26.07;11.53;;;;;;;8.79;100.00;100041.28;5093811;28;20444;-69
2023/04/15 01:12:15;;;;;;;28.50;12.40;;;;;;;8.77;100.00;100038.91;5093763;28;20456;-69
2023/04/15 01:14:41;;;;;;;26.30;11.50;;;;;;;8.74;100.00;100041.41;5093741;28;20448;-69
2023/04/15 01:17:08;;;;;;;23.63;11.60;;;;;;;8.63;100.00;100032.69;5093714;28;20442;-68
2023/04/15 01:19:36;;;;;;;27.77;12.37;;;;;;;8.63;100.00;100037.31;5093716;28;20444;-69
2023/04/15 01:22:04;;;;;;;25.67;12.63;;;;;;;8.66;100.00;100031.31;5093321;28;20983;-68
2023/04/15 01:24:32;;;;;;;26.20;11.40;;;;;;;8.71;100.00;100033.91;5093622;28;20452;-68
2023/04/15 01:27:01;;;;;;;29.53;12.50;;;;;;;8.65;100.00;100041.31;5093561;28;20498;-68
2023/04/15 01:29:27;;;;;;;32.43;13.37;;;;;;;8.69;100.00;100031.50;5093197;28;20993;-68
2023/04/15 01:31:56;;;;;;;28.20;13.00;;;;;;;8.62;100.00;100036.50;5093462;28;20456;-68
2023/04/15 01:34:23;;;;;;;30.17;13.47;;;;;;;8.71;100.00;100040.09;5092675;28;20447;-68
2023/04/15 01:36:50;;;;;;;27.77;13.17;;;;;;;8.67;100.00;100033.69;5093406;28;20446;-71
2023/04/15 01:39:16;;;;;;;31.40;12.57;;;;;;;8.60;100.00;100033.31;5093110;28;20534;-70
2023/04/15 01:41:43;;;;;;;26.70;12.83;;;;;;;8.66;100.00;100036.72;5093027;28;20495;-71
2023/04/15 01:44:11;;;;;;;25.63;13.20;;;;;;;8.66;100.00;100034.00;5093310;28;20452;-70
2023/04/15 01:46:38;;;;;;;25.37;13.07;;;;;;;8.65;100.00;100030.50;5094205;28;20444;-70
2023/04/15 01:49:05;;;;;;;30.07;12.90;;;;;;;8.73;100.00;100032.50;5095304;28;20483;-70
2023/04/15 01:51:31;;;;;;;34.73;13.70;;;;;;;8.77;100.00;100032.72;5093612;28;20444;-69
2023/04/15 01:53:58;;;;;;;30.67;13.00;;;;;;;8.79;100.00;100030.50;5093522;28;20855;-69
2023/04/15 01:56:25;;;;;;;32.43;13.70;;;;;;;8.78;100.00;100024.28;5094180;28;20527;-70
2023/04/15 01:58:52;;;;;;;28.57;13.30;;;;;;;8.83;100.00;100026.09;5094377;28;20440;-70
2023/04/15 02:01:20;;;;;;;29.40;14.90;;;;;;;8.82;100.00;100025.28;5094052;28;20432;-70
2023/04/15 02:03:47;;;;;;;30.23;12.50;;;;;;;8.83;100.00;100026.88;5094089;28;20461;-70
2023/04/15 02:06:14;;;;;;;33.97;13.70;;;;;;;8.82;100.00;100019.88;5094480;28;20540;-71
2023/04/15 02:08:40;;;;;;;29.73;13.60;;;;;;;8.87;100.00;100020.88;5094577;28;20483;-70
2023/04/15 02:11:07;;;;;;;30.57;13.70;;;;;;;8.84;100.00;100017.66;5093095;28;20443;-69
2023/04/15 02:13:34;;;;;;;31.53;13.90;;;;;;;8.87;100.00;100015.47;5093023;28;20456;-69
2023/04/15 02:16:00;;;;;;;32.50;12.17;;;;;;;8.87;100.00;100015.47;5093037;28;20437;-69
2023/04/15 02:18:28;;;;;;;26.03;13.40;;;;;;;8.88;100.00;100014.38;5093053;28;20531;-70
2023/04/15 02:20:56;;;;;;;33.07;14.83;;;;;;;8.89;100.00;100014.06;5092968;28;20445;-69
2023/04/15 02:23:22;;;;;;;29.17;13.50;;;;;;;8.91;100.00;100011.88;5092624;28;20472;-70
2023/04/15 02:25:49;;;;;;;29.10;13.37;;;;;;;8.88;100.00;100006.28;5092959;28;20440;-70
2023/04/15 02:28:15;;;;;;;26.00;12.83;;;;;;;8.91;100.00;100022.66;5092647;28;20537;-69
2023/04/15 02:30:42;;;;;;;31.67;15.60;;;;;;;8.94;100.00;100015.84;5092955;28;20520;-69
2023/04/15 02:36:33;;;;;;;26.80;12.27;;;;;;;8.87;100.00;100015.47;5092714;28;20993;-69
2023/04/15 02:39:00;;;;;;;25.43;12.63;;;;;;;8.90;100.00;100021.09;5092916;28;20815;-70
2023/04/15 02:41:27;;;;;;;29.50;14.13;;;;;;;8.82;100.00;100017.19;5092785;28;20527;-70
2023/04/15 02:43:54;;;;;;;26.40;11.77;;;;;;;8.73;100.00;100027.09;5092591;28;20460;-70
2023/04/15 02:46:21;;;;;;;31.10;13.80;;;;;;;8.72;100.00;100014.72;5094268;28;20463;-69
2023/04/15 02:48:48;;;;;;;40.20;14.30;;;;;;;8.70;100.00;100016.91;5096455;28;20516;-69
2023/04/15 02:51:16;;;;;;;27.60;12.03;;;;;;;8.74;100.00;100017.91;5096585;28;20475;-69
2023/04/15 02:53:44;;;;;;;39.63;15.50;;;;;;;8.71;100.00;100023.91;5096381;28;20488;-69
2023/04/15 02:56:11;;;;;;;30.50;13.70;;;;;;;8.69;100.00;100026.13;5096348;28;20432;-70
2023/04/15 02:58:37;;;;;;;33.63;14.20;;;;;;;8.72;100.00;100019.28;5096382;28;20445;-70
2023/04/15 03:01:04;;;;;;;30.93;14.10;;;;;;;8.55;100.00;100020.72;5096395;28;20450;-70
2023/04/15 03:03:31;;;;;;;32.23;13.77;;;;;;;8.51;100.00;100027.03;5096089;28;21061;-70
2023/04/15 03:05:58;;;;;;;26.47;13.70;;;;;;;8.56;100.00;100021.53;5095923;28;20440;-70
2023/04/15 03:08:24;;;;;;;34.10;13.43;;;;;;;8.62;100.00;100031.09;5096139;28;20844;-70
2023/04/15 03:10:53;;;;;;;38.23;13.50;;;;;;;8.72;100.00;100033.63;5096315;28;20448;-69
2023/04/15 03:13:20;;;;;;;26.97;13.97;;;;;;;8.75;100.00;100030.28;5096462;28;20460;-70
2023/04/15 03:15:47;;;;;;;30.90;12.87;;;;;;;8.77;100.00;100025.41;5096166;28;20444;-70
2023/04/15 03:18:14;;;;;;;35.67;14.37;;;;;;;8.79;100.00;100027.78;5096910;28;20820;-70
2023/04/15 03:20:41;;;;;;;31.47;13.40;;;;;;;8.75;100.00;100022.19;5096382;28;20946;-69
2023/04/15 03:23:07;;;;;;;30.87;14.00;;;;;;;8.77;100.00;100011.91;5096454;28;20532;-70
2023/04/15 03:25:36;;;;;;;27.10;12.57;;;;;;;8.83;100.00;100021.47;5096172;28;20486;-70
2023/04/15 03:28:04;;;;;;;30.93;12.90;;;;;;;8.92;100.00;100026.16;5095798;28;20456;-70
2023/04/15 03:30:31;;;;;;;32.67;15.10;;;;;;;8.93;100.00;100030.47;5095735;28;20953;-70
2023/04/15 03:32:57;;;;;;;28.57;14.00;;;;;;;8.94;100.00;100022.06;5095854;28;20535;-70
2023/04/15 03:35:24;;;;;;;35.60;14.27;;;;;;;8.98;100.00;100027.66;5095842;28;20445;-70
2023/04/15 03:37:51;;;;;;;27.50;13.73;;;;;;;8.99;100.00;100034.66;5095894;28;20451;-70
2023/04/15 03:40:17;;;;;;;32.10;11.93;;;;;;;8.99;100.00;100029.28;5095874;28;20498;-70
2023/04/15 03:42:44;;;;;;;32.80;13.67;;;;;;;9.02;100.00;100023.25;5095607;28;20900;-70
2023/04/15 03:45:12;;;;;;;35.27;15.57;;;;;;;9.02;100.00;100032.13;5095153;28;20535;-69
2023/04/15 03:47:39;;;;;;;30.67;13.57;;;;;;;9.04;100.00;100026.44;5095465;28;20452;-69
2023/04/15 03:50:07;;;;;;;29.10;13.13;;;;;;;9.01;100.00;100032.44;5095340;28;20653;-69
2023/04/15 03:52:33;;;;;;;27.37;12.03;;;;;;;9.06;100.00;100030.44;5095307;28;20465;-70
2023/04/15 03:55:00;;;;;;;35.70;14.23;;;;;;;9.05;100.00;100030.75;5095319;28;20532;-69
2023/04/15 03:57:27;;;;;;;36.67;15.87;;;;;;;8.96;100.00;100024.47;5094654;28;20444;-69
2023/04/15 03:59:53;;;;;;;31.17;13.60;;;;;;;8.96;100.00;100032.56;5095231;28;20479;-69
2023/04/15 04:02:21;;;;;;;30.20;12.97;;;;;;;8.90;100.00;100021.09;5095122;28;20516;-69
2023/04/15 04:04:48;;;;;;;31.67;13.57;;;;;;;8.92;100.00;100024.25;5096108;28;20454;-69
2023/04/15 04:07:16;;;;;;;33.43;14.67;;;;;;;8.93;100.00;100025.84;5094817;28;20476;-69
2023/04/15 04:09:43;;;;;;;29.17;11.90;;;;;;;8.95;100.00;100028.28;5094634;28;20512;-70
2023/04/15 04:12:09;;;;;;;25.47;11.63;;;;;;;8.96;100.00;100027.97;5095220;28;20539;-70
2023/04/15 04:14:36;;;;;;;25.90;11.97;;;;;;;8.98;100.00;100033.03;5095119;28;20441;-70
2023/04/15 04:17:02;;;;;;;35.27;13.67;;;;;;;9.01;100.00;100032.44;5094818;28;20459;-71
2023/04/15 04:19:30;;;;;;;27.90;11.83;;;;;;;8.98;100.00;100035.75;5094831;28;20527;-70
2023/04/15 04:21:57;;;;;;;26.67;11.57;;;;;;;9.00;100.00;100042.47;5094661;28;20463;-70
2023/04/15 04:24:23;;;;;;;25.80;11.97;;;;;;;8.97;100.00;100037.66;5094400;28;21030;-70
2023/04/15 04:26:50;;;;;;;25.60;11.50;;;;;;;8.98;100.00;100038.44;5094670;28;20798;-70
2023/04/15 04:29:16;;;;;;;25.37;10.90;;;;;;;9.00;100.00;100033.56;5094571;28;20516;-69
2023/04/15 04:31:43;;;;;;;25.50;12.07;;;;;;;9.04;100.00;100032.66;5094655;28;20440;-69
2023/04/15 04:34:10;;;;;;;24.27;12.20;;;;;;;9.13;100.00;100045.44;5094324;28;20501;-69
2023/04/15 04:36:38;;;;;;;25.77;12.60;;;;;;;9.15;100.00;100035.09;5094618;28;20486;-69
2023/04/15 04:39:05;;;;;;;34.90;14.17;;;;;;;9.20;100.00;100035.78;5094565;28;20464;-70
2023/04/15 04:41:32;;;;;;;24.20;12.30;;;;;;;9.20;100.00;100041.19;5093984;28;20440;-69
2023/04/15 04:43:58;;;;;;;32.57;12.13;;;;;;;9.23;100.00;100039.78;5094200;28;20808;-69
2023/04/15 04:46:25;;;;;;;24.20;11.67;;;;;;;9.18;100.00;100043.41;5094270;28;20466;-70
2023/04/15 04:48:51;;;;;;;20.50;11.07;;;;;;;9.21;100.00;100042.81;5094121;28;20491;-70
2023/04/15 04:51:18;;;;;;;27.43;11.97;;;;;;;9.25;100.00;100049.22;5094204;28;20482;-69
2023/04/15 04:53:46;;;;;;;25.10;12.30;;;;;;;9.27;100.00;100052.38;5094269;28;21001;-69
2023/04/15 04:56:13;;;;;;;23.77;11.97;;;;;;;9.31;100.00;100052.59;5093853;28;20969;-69
2023/04/15 04:58:39;;;;;;;23.60;11.23;;;;;;;9.31;100.00;100045.28;5094128;28;20448;-69
2023/04/15 05:01:06;;;;;;;28.80;12.40;;;;;;;9.31;100.00;100050.69;5093973;28;20455;-69
2023/04/15 05:03:33;;;;;;;27.63;12.20;;;;;;;9.32;100.00;100049.56;5093930;28;20490;-70
2023/04/15 05:05:59;;;;;;;26.40;12.23;;;;;;;9.33;100.00;100056.56;5093950;28;20441;-70
2023/04/15 05:08:26;;;;;;;24.20;10.57;;;;;;;9.33;100.00;100061.97;5093930;28;20444;-69
2023/04/15 05:10:54;;;;;;;26.37;11.63;;;;;;;9.23;100.00;100059.50;5092925;28;20559;-69
2023/04/15 05:13:20;;;;;;;27.40;12.90;;;;;;;9.27;100.00;100059.69;5093428;28;20464;-70
2023/04/15 05:15:47;;;;;;;33.07;12.80;;;;;;;9.25;100.00;100062.72;5093689;28;20440;-69
2023/04/15 05:18:14;;;;;;;34.80;13.87;;;;;;;9.29;100.00;100066.38;5093751;28;20483;-70
2023/04/15 05:20:41;;;;;;;20.80;10.13;;;;;;;9.28;100.00;100070.19;5093759;28;20441;-69
2023/04/15 05:23:07;;;;;;;23.63;10.87;;;;;;;9.32;100.00;100067.69;5093616;28;20467;-69
2023/04/15 05:25:34;;;;;;;24.50;12.40;;;;;;;9.37;100.00;100062.16;5093639;28;20440;-69
2023/04/15 05:28:02;;;;;;;24.43;11.50;;;;;;;9.32;100.00;100065.78;5093554;28;20448;-69
2023/04/15 05:30:28;;;;;;;23.77;11.00;;;;;;;9.39;100.00;100072.69;5093163;28;20480;-69
2023/04/15 05:32:55;;;;;;;22.10;11.57;;;;;;;9.39;100.00;100076.19;5093457;28;20514;-69
2023/04/15 05:35:22;;;;;;;28.20;11.40;;;;;;;9.46;100.00;100075.75;5093491;28;20472;-70
2023/04/15 05:37:48;;;;;;;23.67;11.63;;;;;;;9.51;100.00;100078.31;5093677;28;20440;-70
2023/04/15 05:40:15;;;;;;;27.47;11.57;;;;;;;9.54;100.00;100078.53;5093989;28;20433;-69
2023/04/15 05:42:41;;;;;;;19.73;10.83;;;;;;;9.59;100.00;100073.00;5093214;28;20463;-69
2023/04/15 05:45:11;;;;;;;30.40;11.17;;;;;;;9.54;100.00;100069.63;5093027;28;20456;-69
2023/04/15 05:47:37;;;;;;;23.37;10.57;;;;;;;9.56;100.00;100081.72;5093460;28;20494;-69
2023/04/15 05:50:05;;;;;;;24.07;12.20;;;;;;;9.64;100.00;100082.88;5093100;28;20571;-69
2023/04/15 05:52:32;;;;;;;20.10;10.10;;;;;;;9.72;100.00;100084.84;5092901;28;20464;-71
2023/04/15 05:54:58;;;;;;;21.07;10.90;;;;;;;9.75;100.00;100083.47;5093219;28;20436;-69
2023/04/15 05:57:25;;;;;;;27.40;11.50;;;;;;;9.74;100.00;100088.06;5093193;28;20448;-68
2023/04/15 05:59:52;;;;;;;23.50;11.30;;;;;;;9.77;100.00;100081.22;5093245;28;20528;-70
2023/04/15 06:02:20;;;;;;;25.60;10.60;;;;;;;9.83;100.00;100085.44;5093139;28;20881;-70
2023/04/15 06:04:47;;;;;;;23.10;11.57;;;;;;;9.86;100.00;100090.19;5092880;28;20935;-70
2023/04/15 06:07:14;;;;;;;20.80;10.87;;;;;;;9.92;100.00;100085.47;5093129;28;20468;-70
2023/04/15 06:09:40;;;;;;;20.43;10.90;;;;;;;9.91;100.00;100083.88;5093031;28;20487;-70
2023/04/15 06:12:10;;;;;;;24.13;9.93;;;;;;;9.90;100.00;100091.19;5093269;28;20543;-68
2023/04/15 06:14:37;;;;;;;22.80;11.23;;;;;;;10.00;100.00;100082.00;5093124;28;20448;-68
2023/04/15 06:17:04;;;;;;;18.57;9.93;;;;;;;10.08;100.00;100083.97;5093055;28;20440;-68
2023/04/15 06:19:32;;;;;;;23.33;9.87;;;;;;;10.18;100.00;100082.91;5092955;28;20480;-69
2023/04/15 06:21:59;;;;;;;21.43;10.00;;;;;;;10.29;100.00;100082.38;5095537;28;20456;-68
2023/04/15 06:24:25;;;;;;;25.33;9.63;;;;;;;10.38;100.00;100081.59;5096721;28;20943;-68
2023/04/15 06:26:52;;;;;;;19.13;9.80;;;;;;;10.31;100.00;100084.75;5096975;28;20491;-69
2023/04/15 06:29:19;;;;;;;21.23;10.13;;;;;;;10.22;100.00;100084.69;5096514;28;20861;-68
2023/04/15 06:31:47;;;;;;;23.57;10.97;;;;;;;10.30;100.00;100083.97;5096876;28;20463;-68
2023/04/15 06:34:13;;;;;;;18.37;9.60;;;;;;;10.38;100.00;100079.69;5096556;28;20951;-68
2023/04/15 06:36:41;;;;;;;21.10;9.93;;;;;;;10.42;100.00;100085.28;5096840;28;20511;-68
2023/04/15 06:39:08;;;;;;;20.27;8.93;;;;;;;10.32;100.00;100089.88;5096442;28;20480;-68
2023/04/15 06:41:35;;;;;;;21.73;10.27;;;;;;;10.43;100.00;100089.59;5096620;28;20436;-68
2023/04/15 06:44:02;;;;;;;19.40;10.23;;;;;;;10.53;100.00;100089.31;5096451;28;20483;-68
2023/04/15 06:46:29;;;;;;;21.27;8.97;;;;;;;10.61;100.00;100083.13;5096655;28;20532;-69
2023/04/15 06:48:55;;;;;;;21.57;10.80;;;;;;;10.60;100.00;100100.50;5096566;28;20468;-69
2023/04/15 06:51:22;;;;;;;22.10;9.83;;;;;;;10.66;100.00;100093.81;5096196;28;20468;-72
2023/04/15 06:53:50;;;;;;;21.67;10.63;;;;;;;10.73;100.00;100102.28;5096481;28;20810;-72
2023/04/15 06:56:17;;;;;;;17.93;9.03;;;;;;;10.72;100.00;100099.91;5096487;28;20476;-72
2023/04/15 06:58:43;;;;;;;21.77;9.10;;;;;;;10.75;100.00;100105.47;5096352;28;20448;-71
2023/04/15 07:01:10;;;;;;;17.30;8.80;;;;;;;10.66;100.00;100104.66;5096751;28;20482;-70
2023/04/15 07:03:37;;;;;;;17.10;8.80;;;;;;;10.83;100.00;100106.63;5096546;28;20463;-70
2023/04/15 07:06:05;;;;;;;16.33;8.13;;;;;;;10.98;100.00;100108.91;5096318;28;20479;-70
2023/04/15 07:08:32;;;;;;;25.87;9.27;;;;;;;11.11;100.00;100113.41;5096362;28;20446;-70
2023/04/15 07:11:00;;;;;;;17.03;8.87;;;;;;;11.21;100.00;100123.16;5096263;28;20491;-70
2023/04/15 07:13:27;;;;;;;15.60;7.90;;;;;;;11.25;100.00;100126.81;5096291;28;20456;-70
2023/04/15 07:15:54;;;;;;;14.93;7.70;;;;;;;11.26;100.00;100125.69;5095919;28;20522;-69
2023/04/15 07:18:20;;;;;;;15.23;7.63;;;;;;;11.16;100.00;100126.00;5096565;28;20444;-70
2023/04/15 07:20:47;;;;;;;13.70;7.30;;;;;;;11.16;100.00;100133.34;5096174;28;20443;-70
2023/04/15 07:23:14;;;;;;;17.30;8.27;;;;;;;11.14;100.00;100144.47;5095722;28;20494;-70
2023/04/15 07:25:41;;;;;;;17.03;9.00;;;;;;;11.16;100.00;100144.97;5095727;28;20429;-70
2023/04/15 07:28:08;;;;;;;15.63;7.93;;;;;;;11.32;100.00;100143.41;5095681;28;20824;-70
2023/04/15 07:30:35;;;;;;;21.37;8.17;;;;;;;11.41;100.00;100146.13;5095798;28;20567;-70
2023/04/15 07:33:02;;;;;;;17.37;7.97;;;;;;;11.47;100.00;100149.50;5094982;28;20514;-70
2023/04/15 07:35:29;;;;;;;19.90;9.13;;;;;;;11.36;100.00;100149.00;5095647;28;20969;-69
2023/04/15 07:37:55;;;;;;;16.17;8.73;;;;;;;11.35;100.00;100153.63;5096152;28;20520;-69
2023/04/15 07:40:22;;;;;;;17.13;8.20;;;;;;;11.36;100.00;100152.50;5095900;28;20437;-69
2023/04/15 07:42:49;;;;;;;16.07;9.80;;;;;;;11.36;100.00;100157.13;5095743;28;20468;-69
2023/04/15 07:45:17;;;;;;;15.70;7.10;;;;;;;11.39;100.00;100161.13;5095448;28;20541;-69
2023/04/15 07:47:44;;;;;;;18.97;8.27;;;;;;;11.41;100.00;100156.19;5095874;28;20464;-69
2023/04/15 07:50:11;;;;;;;16.27;8.27;;;;;;;11.40;100.00;100158.09;5095676;28;20922;-70
2023/04/15 07:52:38;;;;;;;15.07;7.00;;;;;;;11.42;100.00;100165.91;5095560;28;20823;-69
2023/04/15 07:55:07;;;;;;;14.00;7.20;;;;;;;11.37;100.00;100159.50;5095690;28;20452;-70
2023/04/15 07:57:33;;;;;;;13.70;7.07;;;;;;;11.40;100.00;100162.72;5095645;28;20445;-69
2023/04/15 08:00:00;;;;;;;17.40;7.57;;;;;;;11.35;100.00;100167.19;5095485;28;20798;-69
2023/04/15 08:02:28;;;;;;;16.80;7.87;;;;;;;11.31;100.00;100166.22;5095291;28;20499;-70
2023/04/15 08:04:55;;;;;;;13.80;6.67;;;;;;;11.34;100.00;100167.50;5095250;28;20443;-70
2023/04/15 08:07:21;;;;;;;18.40;8.20;;;;;;;11.33;100.00;100158.59;5095488;28;20439;-69
2023/04/15 08:09:48;;;;;;;18.73;7.50;;;;;;;11.32;100.00;100167.81;5094775;28;20443;-69
2023/04/15 08:12:15;;;;;;;15.73;6.67;;;;;;;11.27;100.00;100162.53;5094830;28;20491;-69
2023/04/15 08:14:42;;;;;;;13.27;7.17;;;;;;;11.26;100.00;100166.38;5094988;28;20484;-69
2023/04/15 08:17:08;;;;;;;14.90;7.73;;;;;;;11.35;100.00;100169.91;5095518;28;20544;-70
2023/04/15 08:19:36;;;;;;;17.70;9.03;;;;;;;11.24;100.00;100171.28;5095242;28;20447;-70
2023/04/15 08:22:03;;;;;;;12.37;6.60;;;;;;;11.34;100.00;100175.66;5094780;28;20492;-70
2023/04/15 08:24:30;;;;;;;18.73;8.00;;;;;;;11.37;100.00;100177.69;5094558;28;20969;-70
2023/04/15 08:26:56;;;;;;;19.60;8.20;;;;;;;11.39;100.00;100188.25;5094556;28;20476;-70
2023/04/15 08:29:23;;;;;;;17.33;8.97;;;;;;;11.44;100.00;100179.97;5094777;28;20441;-69
2023/04/15 08:31:50;;;;;;;17.27;8.37;;;;;;;11.41;100.00;100188.72;5094406;28;20499;-69
2023/04/15 08:34:17;;;;;;;15.00;7.07;;;;;;;11.36;100.00;100173.41;5094266;28;20476;-70
2023/04/15 08:36:45;;;;;;;16.47;8.27;;;;;;;11.30;100.00;100185.53;5094473;28;20480;-70
2023/04/15 08:39:11;;;;;;;13.37;6.60;;;;;;;11.29;100.00;100184.72;5094591;28;20464;-72
2023/04/15 08:41:45;;;;;;;21.47;7.20;;;;;;;11.32;100.00;100184.06;5094170;28;20519;-70
2023/04/15 08:44:13;;;;;;;14.43;8.00;;;;;;;11.40;100.00;100184.41;5094003;28;20464;-71
2023/04/15 08:46:41;;;;;;;14.67;7.50;;;;;;;11.32;100.00;100186.78;5094276;28;20435;-72
2023/04/15 08:49:12;;;;;;;15.37;7.57;;;;;;;11.46;100.00;100185.84;5094234;28;20535;-69
2023/04/15 08:51:40;;;;;;;15.67;7.10;;;;;;;11.48;100.00;100187.16;5094093;28;20465;-69
2023/04/15 08:54:09;;;;;;;17.47;8.83;;;;;;;11.33;100.00;100190.28;5094163;28;20499;-69
2023/04/15 08:56:36;;;;;;;16.67;7.60;;;;;;;11.45;100.00;100192.41;5094487;28;20452;-69
2023/04/15 08:59:04;;;;;;;14.00;7.73;;;;;;;11.45;100.00;100197.81;5094321;28;20444;-69
2023/04/15 09:01:32;;;;;;;14.73;7.90;;;;;;;11.50;100.00;100198.47;5094257;28;20489;-69
2023/04/15 09:03:59;;;;;;;18.03;8.63;;;;;;;11.24;100.00;100211.97;5094158;28;20447;-70
2023/04/15 09:06:26;;;;;;;15.30;8.20;;;;;;;11.34;100.00;100216.31;5093967;28;20448;-68
2023/04/15 09:08:53;;;;;;;17.77;7.77;;;;;;;11.35;100.00;100204.34;5093854;28;20443;-68
2023/04/15 09:11:22;;;;;;;12.90;7.77;;;;;;;11.42;100.00;100201.97;5093776;28;20487;-68
2023/04/15 09:13:49;;;;;;;16.10;7.97;;;;;;;11.34;100.00;100214.41;5093717;28;20500;-67
2023/04/15 09:16:15;;;;;;;15.30;8.13;;;;;;;11.36;100.00;100204.03;5093499;28;20441;-68
2023/04/15 09:18:43;;;;;;;14.30;7.73;;;;;;;11.41;100.00;100218.56;5093732;28;20441;-68
2023/04/15 09:21:11;;;;;;;16.03;8.20;;;;;;;11.41;100.00;100210.41;5093703;28;20436;-68
2023/04/15 09:23:40;;;;;;;19.57;8.83;;;;;;;11.49;100.00;100213.16;5093301;28;20488;-68
2023/04/15 09:26:08;;;;;;;20.93;8.77;;;;;;;11.46;100.00;100215.69;5093669;28;20602;-68
2023/04/15 09:28:41;;;;;;;17.77;8.93;;;;;;;11.50;100.00;100216.66;5093372;28;20958;-68
2023/04/15 09:31:09;;;;;;;15.90;8.17;;;;;;;11.40;100.00;100220.47;5093235;28;20970;-68
2023/04/15 09:33:36;;;;;;;17.20;8.33;;;;;;;11.36;100.00;100219.50;5093413;28;20460;-68
2023/04/15 09:36:04;;;;;;;16.10;8.80;;;;;;;11.43;100.00;100227.19;5093147;28;20446;-67
2023/04/15 09:38:31;;;;;;;18.27;8.57;;;;;;;11.51;100.00;100223.66;5093536;28;20488;-68
2023/04/15 09:40:59;;;;;;;18.43;7.50;;;;;;;11.43;100.00;100225.28;5093104;28;20959;-68
2023/04/15 09:43:40;;;;;;;14.50;6.83;;;;;;;11.46;100.00;100221.13;5092923;28;21080;-68
2023/04/15 09:46:07;;;;;;;16.23;8.27;;;;;;;11.52;100.00;100228.00;5093372;28;20470;-68
2023/04/15 09:48:34;;;;;;;15.40;7.23;;;;;;;11.59;100.00;100231.03;5093003;28;20479;-68
2023/04/15 09:51:01;;;;;;;14.63;7.90;;;;;;;11.64;100.00;100233.59;5093198;28;20480;-68
2023/04/15 09:53:28;;;;;;;22.60;7.60;;;;;;;11.51;100.00;100234.53;5093245;28;20539;-68
2023/04/15 09:55:56;;;;;;;13.67;7.53;;;;;;;11.59;100.00;100239.16;5092731;28;20436;-68
2023/04/15 09:58:25;;;;;;;15.73;7.90;;;;;;;11.61;100.00;100240.47;5093132;28;20443;-68
2023/04/15 10:00:55;;;;;;;19.27;8.17;;;;;;;11.63;100.00;100237.44;5093144;28;20437;-67
2023/04/15 10:03:23;;;;;;;13.53;6.40;;;;;;;11.63;100.00;100240.13;5092777;28;20517;-68
2023/04/15 10:05:51;;;;;;;14.17;7.13;;;;;;;11.61;100.00;100255.94;5093100;28;20538;-68
2023/04/15 10:08:19;;;;;;;16.70;7.17;;;;;;;11.53;100.00;100251.28;5093132;28;20540;-68
2023/04/15 10:10:47;;;;;;;13.87;7.07;;;;;;;11.52;100.00;100253.22;5092988;28;20571;-68
2023/04/15 10:13:15;;;;;;;17.40;6.77;;;;;;;11.52;100.00;100255.94;5093011;28;20459;-68
2023/04/15 10:15:46;;;;;;;18.87;8.50;;;;;;;11.46;100.00;100269.94;5092688;28;20958;-68
2023/04/15 10:18:16;;;;;;;18.20;7.93;;;;;;;11.35;100.00;100261.28;5093048;28;20425;-68
2023/04/15 10:20:43;;;;;;;15.63;7.03;;;;;;;11.41;100.00;100260.03;5093038;28;20425;-68
2023/04/15 10:23:11;;;;;;;15.90;6.53;;;;;;;11.48;100.00;100260.38;5092684;28;20496;-68
2023/04/15 10:25:39;;;;;;;13.60;6.80;;;;;;;11.42;100.00;100268.97;5092690;28;20454;-68
2023/04/15 10:28:07;;;;;;;20.03;9.07;;;;;;;11.48;100.00;100265.00;5092633;28;20812;-68
2023/04/15 10:30:34;;;;;;;16.93;8.00;;;;;;;11.47;100.00;100263.41;5092808;28;20484;-68
2023/04/15 10:33:02;;;;;;;16.07;6.90;;;;;;;11.53;100.00;100270.28;5092478;28;20488;-68
2023/04/15 10:35:31;;;;;;;17.37;7.83;;;;;;;11.52;100.00;100269.50;5092849;28;20488;-69
2023/04/15 10:37:59;;;;;;;15.40;7.23;;;;;;;11.54;100.00;100264.53;5092455;28;20862;-70
2023/04/15 10:40:30;;;;;;;15.53;7.60;;;;;;;11.54;100.00;100267.25;5092764;28;20451;-70
2023/04/15 10:42:58;;;;;;;15.77;7.20;;;;;;;11.50;100.00;100271.69;5092741;28;20967;-71
2023/04/15 10:45:27;;;;;;;16.80;7.93;;;;;;;11.61;100.00;100277.66;5092688;28;20452;-69
2023/04/15 10:47:55;;;;;;;14.80;7.37;;;;;;;11.70;100.00;100267.63;5093136;28;20441;-70
2023/04/15 10:50:22;;;;;;;16.70;9.07;;;;;;;11.80;100.00;100263.78;5092460;28;20449;-70
2023/04/15 10:52:52;;;;;;;19.87;9.50;;;;;;;11.84;100.00;100268.31;5092667;28;20551;-70
2023/04/15 10:55:21;;;;;;;16.60;7.43;;;;;;;11.81;100.00;100274.31;5093358;28;20436;-70
2023/04/15 10:57:52;;;;;;;17.20;8.10;;;;;;;11.84;100.00;100276.44;5092263;28;20447;-70
2023/04/15 11:00:20;;;;;;;16.50;8.17;;;;;;;11.84;100.00;100281.88;5092557;28;20435;-70
2023/04/15 11:02:48;;;;;;;14.63;6.37;;;;;;;11.88;100.00;100278.53;5092253;28;20511;-69
2023/04/15 11:05:16;;;;;;;15.80;7.43;;;;;;;11.93;100.00;100283.81;5092153;28;20936;-69
2023/04/15 11:07:55;;;;;;;12.70;8.00;;;;;;;11.92;100.00;100287.63;5092768;28;20432;-69
2023/04/15 11:10:52;;;;;;;16.70;8.40;;;;;;;11.79;100.00;100287.41;5095833;28;20489;-70
2023/04/15 11:13:26;;;;;;;15.97;7.80;;;;;;;11.72;100.00;100287.06;5095563;28;20468;-70